Time;durP1;ratioP1;P1;durP2;ratioP2;P2;SDS_P1;SDS_P2;PMS_P1;PMS_P2;Temp;Humidity;BMP_temperature;BMP_pressure;BME280_temperature;BME280_humidity;BME280_pressure;Samples;Min_cycle;Max_cycle;Signal;HPM_P1;HPM_P2
2023/03/05 00:01:55;;;;;;;4.25;1.73;;;;;;;2.15;87.74;102563.50;6099137;19;20023;-70
2023/03/05 00:04:01;;;;;;;9.30;3.28;;;;;;;2.18;87.48;102563.56;6103456;19;20006;-75
2023/03/05 00:06:07;;;;;;;5.22;2.13;;;;;;;2.17;86.87;102557.50;6099490;19;20013;-77
2023/03/05 00:08:14;;;;;;;11.15;2.33;;;;;;;2.16;87.97;102560.97;6100906;19;20002;-76
2023/03/05 00:10:19;;;;;;;6.30;2.85;;;;;;;2.13;87.60;102555.72;6097463;19;20029;-77
2023/03/05 00:12:24;;;;;;;7.05;2.55;;;;;;;2.12;87.36;102551.34;6096601;19;20537;-76
2023/03/05 00:14:28;;;;;;;8.35;3.05;;;;;;;2.09;88.31;102553.88;6099860;19;20931;-76
2023/03/05 00:16:34;;;;;;;4.53;2.08;;;;;;;2.06;88.15;102552.94;6094622;19;20435;-76
2023/03/05 00:18:38;;;;;;;8.10;2.08;;;;;;;2.04;88.43;102544.25;6098769;19;20014;-76
2023/03/05 00:20:43;;;;;;;6.28;2.85;;;;;;;2.05;88.86;102546.00;6099453;19;20541;-76
2023/03/05 00:22:48;;;;;;;7.22;2.53;;;;;;;2.04;88.66;102545.13;6098565;19;20047;-76
2023/03/05 00:24:55;;;;;;;6.40;2.17;;;;;;;1.96;87.99;102541.50;6101599;19;20018;-75
2023/03/05 00:27:00;;;;;;;4.38;2.22;;;;;;;1.96;88.80;102537.16;6099469;19;20018;-75
2023/03/05 00:29:06;;;;;;;6.00;2.25;;;;;;;1.94;88.22;102538.84;6099608;19;20468;-76
2023/03/05 00:31:11;;;;;;;8.90;2.20;;;;;;;2.00;89.50;102535.50;6099300;19;20017;-76
2023/03/05 00:33:16;;;;;;;7.30;3.10;;;;;;;1.97;88.43;102535.44;6100215;19;20014;-75
2023/03/05 00:35:20;;;;;;;7.50;2.63;;;;;;;2.04;89.38;102536.47;6099844;19;20015;-75
2023/03/05 00:37:25;;;;;;;6.93;2.40;;;;;;;2.04;89.03;102533.88;6100444;19;20027;-76
2023/03/05 00:39:30;;;;;;;2.92;1.70;;;;;;;2.05;89.38;102536.50;6098857;19;20082;-76
2023/03/05 00:41:38;;;;;;;5.93;2.17;;;;;;;2.04;89.25;102534.75;6099596;19;20018;-77
2023/03/05 00:43:43;;;;;;;9.85;2.45;;;;;;;2.06;89.77;102538.25;6098032;19;20003;-76
2023/03/05 00:45:48;;;;;;;9.10;2.33;;;;;;;2.07;89.31;102532.22;6100160;19;20094;-76
2023/03/05 00:47:52;;;;;;;6.88;2.33;;;;;;;2.08;89.31;102527.91;6099330;19;20010;-75
2023/03/05 00:49:57;;;;;;;5.47;1.90;;;;;;;2.07;89.04;102520.97;6099071;19;20821;-76
2023/03/05 00:52:02;;;;;;;7.05;2.10;;;;;;;2.05;88.98;102523.53;6097361;19;20007;-76
2023/03/05 00:54:07;;;;;;;6.88;2.28;;;;;;;2.06;89.67;102512.31;6095709;19;20043;-75
2023/03/05 00:56:12;;;;;;;5.20;1.98;;;;;;;2.07;89.24;102513.19;6099731;19;20002;-72
2023/03/05 00:58:19;;;;;;;5.28;2.00;;;;;;;2.07;89.22;102511.47;6096587;19;20033;-71
2023/03/05 01:00:24;;;;;;;7.05;2.42;;;;;;;2.06;89.59;102507.16;6097978;19;20641;-71
2023/03/05 01:02:29;;;;;;;5.47;2.28;;;;;;;2.09;89.89;102507.22;6098480;19;20007;-71
2023/03/05 01:04:35;;;;;;;3.85;2.70;;;;;;;2.08;89.49;102505.47;6098172;19;20275;-71
2023/03/05 01:06:43;;;;;;;3.67;1.75;;;;;;;2.10;89.86;102506.34;6102541;19;20022;-71
2023/03/05 01:08:48;;;;;;;5.10;2.15;;;;;;;2.12;90.02;102504.66;6104140;19;20014;-71
2023/03/05 01:10:53;;;;;;;8.73;2.60;;;;;;;2.14;90.18;102500.41;6105325;19;20021;-71
2023/03/05 01:12:58;;;;;;;7.03;2.35;;;;;;;2.17;90.36;102505.66;6103550;19;20015;-71
2023/03/05 01:15:07;;;;;;;5.28;2.15;;;;;;;2.14;89.44;102500.41;6102976;19;20662;-71
2023/03/05 01:17:12;;;;;;;4.15;2.25;;;;;;;2.17;89.63;102497.00;6104517;19;20023;-71
2023/03/05 01:19:18;;;;;;;7.18;3.10;;;;;;;2.20;89.91;102495.31;6104713;19;20658;-71
2023/03/05 01:21:23;;;;;;;10.55;3.15;;;;;;;2.21;89.76;102493.59;6100202;19;20224;-72
2023/03/05 01:23:28;;;;;;;10.18;4.35;;;;;;;2.27;90.24;102490.28;6104751;19;20855;-71
2023/03/05 01:25:32;;;;;;;9.40;4.50;;;;;;;2.25;89.95;102490.25;6106547;19;20007;-71
2023/03/05 01:27:37;;;;;;;13.93;5.72;;;;;;;2.28;90.45;102486.84;6106195;19;20039;-71
2023/03/05 01:29:42;;;;;;;11.63;5.40;;;;;;;2.27;90.23;102479.91;6104972;19;20039;-72
2023/03/05 01:31:49;;;;;;;9.93;4.18;;;;;;;2.28;89.77;102476.47;6106690;19;20011;-71
2023/03/05 01:33:55;;;;;;;8.27;4.30;;;;;;;2.30;90.29;102478.25;6103618;19;20563;-71
2023/03/05 01:36:00;;;;;;;7.68;3.15;;;;;;;2.32;90.18;102473.09;6106125;19;20035;-76
2023/03/05 01:38:04;;;;;;;12.52;4.38;;;;;;;2.33;89.90;102472.25;6102744;19;20013;-75
2023/03/05 01:40:11;;;;;;;9.43;3.38;;;;;;;2.34;90.24;102461.91;6104052;19;20014;-75
2023/03/05 01:42:18;;;;;;;6.80;3.33;;;;;;;2.34;90.14;102461.91;6104389;19;20039;-76
2023/03/05 01:44:25;;;;;;;7.15;2.60;;;;;;;2.37;90.93;102471.44;6101789;19;20550;-76
2023/03/05 01:46:33;;;;;;;4.95;2.60;;;;;;;2.36;89.83;102459.31;6103056;19;20013;-75
2023/03/05 01:48:46;;;;;;;6.78;3.60;;;;;;;2.37;90.09;102455.88;6101852;19;20014;-76
2023/03/05 01:50:51;;;;;;;5.65;2.75;;;;;;;2.36;90.04;102447.22;6103126;19;20650;-75
2023/03/05 01:53:00;;;;;;;10.30;3.42;;;;;;;2.39;90.45;102444.69;6097421;19;20011;-76
2023/03/05 01:55:07;;;;;;;5.65;2.92;;;;;;;2.37;90.26;102441.22;6102276;19;20531;-76
2023/03/05 01:57:16;;;;;;;18.38;5.55;;;;;;;2.38;90.30;102440.34;6103946;19;20031;-76
2023/03/05 01:59:23;;;;;;;18.25;5.95;;;;;;;2.40;90.49;102438.66;6099570;19;20043;-75
2023/03/05 02:01:28;;;;;;;14.75;5.22;;;;;;;2.37;89.86;102430.84;6102205;19;20006;-76
2023/03/05 02:03:35;;;;;;;15.63;5.00;;;;;;;2.36;89.86;102429.06;6103517;19;20010;-76
2023/03/05 02:05:44;;;;;;;10.25;4.20;;;;;;;2.33;89.62;102425.53;6105901;19;20063;-75
2023/03/05 02:07:49;;;;;;;11.15;4.28;;;;;;;2.32;89.78;102422.09;6106555;19;20023;-75
2023/03/05 02:09:54;;;;;;;10.82;3.90;;;;;;;2.32;89.92;102410.84;6104011;19;20027;-76
2023/03/05 02:11:59;;;;;;;10.10;3.78;;;;;;;2.28;89.81;102417.66;6104602;19;20014;-75
2023/03/05 02:14:05;;;;;;;5.70;2.50;;;;;;;2.26;89.70;102415.91;6104537;19;20035;-75
2023/03/05 02:16:13;;;;;;;7.43;2.80;;;;;;;2.20;90.07;102417.53;6105853;19;20018;-76
2023/03/05 02:18:20;;;;;;;7.85;2.88;;;;;;;2.18;90.10;102407.97;6104910;19;20010;-76
2023/03/05 02:20:27;;;;;;;6.80;2.25;;;;;;;2.14;89.95;102403.56;6110261;19;20014;-76
2023/03/05 02:22:36;;;;;;;5.65;2.25;;;;;;;2.09;90.46;102400.88;6108302;19;20231;-76
2023/03/05 02:24:41;;;;;;;6.97;2.45;;;;;;;2.07;89.83;102399.09;6108650;19;20010;-76
2023/03/05 02:26:48;;;;;;;4.63;2.17;;;;;;;2.03;89.74;102390.41;6107173;19;20031;-75
2023/03/05 02:28:58;;;;;;;8.73;3.25;;;;;;;2.01;89.67;102386.03;6106195;19;20018;-76
2023/03/05 02:31:03;;;;;;;4.32;2.20;;;;;;;1.97;90.39;102382.47;6102348;19;20509;-76
2023/03/05 02:33:08;;;;;;;7.25;2.45;;;;;;;1.91;90.04;102378.06;6099781;19;20018;-75
2023/03/05 02:35:13;;;;;;;4.90;2.65;;;;;;;1.87;90.54;102376.25;6100472;19;20594;-76
2023/03/05 02:37:18;;;;;;;5.13;2.63;;;;;;;1.86;89.91;102371.03;6102123;19;20086;-76
2023/03/05 02:39:25;;;;;;;5.50;3.10;;;;;;;1.82;90.00;102377.00;6094197;19;20018;-75
2023/03/05 02:41:30;;;;;;;7.90;3.05;;;;;;;1.79;90.35;102366.56;6101746;19;20026;-75
2023/03/05 02:43:34;;;;;;;9.45;2.88;;;;;;;1.80;90.75;102370.94;6103066;19;20113;-76
2023/03/05 02:45:40;;;;;;;9.48;3.33;;;;;;;1.79;90.24;102362.28;6103435;19;21118;-76
2023/03/05 02:47:45;;;;;;;5.25;2.60;;;;;;;1.82;90.77;102370.13;6103841;19;20019;-76
2023/03/05 02:49:50;;;;;;;6.20;2.83;;;;;;;1.84;90.37;102362.34;6103062;19;20020;-76
2023/03/05 02:51:55;;;;;;;5.20;2.42;;;;;;;2.00;90.38;102366.13;6104394;19;20014;-76
2023/03/05 02:53:59;;;;;;;3.53;1.83;;;;;;;2.08;90.29;102360.25;6101273;19;20018;-76
2023/03/05 02:56:07;;;;;;;5.70;1.98;;;;;;;2.20;90.42;102355.28;6103085;19;20018;-76
2023/03/05 02:58:13;;;;;;;8.32;2.78;;;;;;;2.37;89.89;102357.28;6100777;19;20023;-76
2023/03/05 03:00:19;;;;;;;5.05;2.17;;;;;;;2.34;90.32;102354.66;6101020;19;20094;-76
2023/03/05 03:02:24;;;;;;;5.57;2.03;;;;;;;2.31;89.93;102355.47;6101380;19;20634;-76
2023/03/05 03:04:29;;;;;;;4.75;2.00;;;;;;;2.30;90.09;102350.28;6098207;19;20010;-77
2023/03/05 03:06:34;;;;;;;5.50;2.28;;;;;;;2.31;90.06;102350.28;6104218;19;20007;-76
2023/03/05 03:08:38;;;;;;;2.70;2.03;;;;;;;2.28;90.23;102347.63;6102625;19;20018;-76
2023/03/05 03:10:43;;;;;;;4.80;2.17;;;;;;;2.29;90.46;102349.41;6098979;19;20100;-76
2023/03/05 03:12:50;;;;;;;6.03;2.25;;;;;;;2.25;90.27;102337.22;6100012;19;20458;-77
2023/03/05 03:14:55;;;;;;;4.35;2.10;;;;;;;2.23;91.00;102335.44;6099772;19;20014;-76
2023/03/05 03:17:00;;;;;;;3.55;2.13;;;;;;;2.17;90.56;102334.47;6101327;19;20018;-76
2023/03/05 03:19:05;;;;;;;4.50;2.08;;;;;;;2.16;91.02;102327.56;6099101;19;20011;-77
2023/03/05 03:21:10;;;;;;;7.60;2.03;;;;;;;2.15;90.93;102325.78;6100060;19;20015;-76
2023/03/05 03:23:14;;;;;;;6.25;1.90;;;;;;;2.15;90.61;102320.59;6099061;19;20509;-77
2023/03/05 03:25:22;;;;;;;6.70;2.13;;;;;;;2.16;91.25;102314.59;6098461;19;20336;-73
2023/03/05 03:27:27;;;;;;;4.72;1.80;;;;;;;2.20;91.47;102316.38;6097339;19;20476;-76
2023/03/05 03:29:34;;;;;;;3.20;1.98;;;;;;;2.22;91.30;102310.34;6102966;19;20017;-77
2023/03/05 03:31:40;;;;;;;8.30;2.88;;;;;;;2.29;91.69;102307.00;6100643;19;20018;-77
2023/03/05 03:33:45;;;;;;;3.20;2.30;;;;;;;2.38;91.78;102302.84;6099045;19;20015;-76
2023/03/05 03:35:50;;;;;;;11.23;3.55;;;;;;;2.42;91.57;102302.06;6103224;19;20010;-72
2023/03/05 03:37:55;;;;;;;6.80;2.80;;;;;;;2.47;91.63;102303.84;6099521;19;20029;-72
2023/03/05 03:40:00;;;;;;;7.68;2.72;;;;;;;2.52;91.39;102307.41;6097913;19;20010;-71
2023/03/05 03:42:05;;;;;;;4.05;2.33;;;;;;;2.53;91.52;102315.22;6102574;19;20010;-76
2023/03/05 03:44:10;;;;;;;5.93;2.47;;;;;;;2.56;91.22;102312.66;6098188;19;20526;-75
2023/03/05 03:46:19;;;;;;;7.78;2.65;;;;;;;2.59;91.40;102307.53;6097919;19;20019;-75
2023/03/05 03:48:24;;;;;;;3.22;2.20;;;;;;;2.56;91.32;102307.47;6099579;19;20015;-77
2023/03/05 03:50:29;;;;;;;7.93;2.30;;;;;;;2.54;91.33;102311.75;6099852;19;20033;-76
2023/03/05 03:52:34;;;;;;;6.07;2.60;;;;;;;2.56;91.38;102311.81;6100065;19;20017;-76
2023/03/05 03:54:38;;;;;;;8.50;2.47;;;;;;;2.63;91.61;102298.06;6097901;19;20113;-77
2023/03/05 03:56:44;;;;;;;4.13;1.75;;;;;;;2.73;90.98;102299.06;6100375;19;20010;-75
2023/03/05 03:58:51;;;;;;;7.10;1.85;;;;;;;2.73;91.04;102289.56;6099927;19;20710;-76
2023/03/05 04:00:56;;;;;;;3.78;1.88;;;;;;;2.76;90.17;102299.13;6101314;19;20039;-77
2023/03/05 04:03:03;;;;;;;4.00;1.75;;;;;;;2.74;90.00;102290.44;6101153;19;20030;-75
2023/03/05 04:05:10;;;;;;;6.43;1.65;;;;;;;2.69;89.69;102280.00;6101680;19;20068;-74
2023/03/05 04:07:15;;;;;;;4.85;1.48;;;;;;;2.74;89.38;102285.25;6099463;19;20241;-76
2023/03/05 04:09:20;;;;;;;2.90;1.50;;;;;;;2.75;89.34;102279.22;6100461;19;20024;-72
2023/03/05 04:11:24;;;;;;;3.13;1.63;;;;;;;2.78;88.97;102276.66;6100631;19;20027;-71
2023/03/05 04:13:29;;;;;;;3.20;1.35;;;;;;;2.74;89.43;102275.75;6104048;19;20011;-71
2023/03/05 04:15:35;;;;;;;2.53;1.30;;;;;;;2.72;89.58;102274.84;6101218;19;20031;-71
2023/03/05 04:17:40;;;;;;;2.92;1.25;;;;;;;2.70;89.27;102268.75;6098936;19;21390;-71
2023/03/05 04:19:47;;;;;;;2.70;1.52;;;;;;;2.69;89.18;102266.16;6097324;19;20102;-71
2023/03/05 04:21:52;;;;;;;3.30;1.30;;;;;;;2.72;89.08;102271.38;6098416;19;20015;-71
2023/03/05 04:23:57;;;;;;;2.22;1.40;;;;;;;2.66;89.11;102261.78;6101180;19;20007;-72
2023/03/05 04:26:10;;;;;;;2.20;1.05;;;;;;;2.63;89.06;102265.22;6099354;19;20012;-75
2023/03/05 04:28:16;;;;;;;4.88;1.58;;;;;;;2.61;89.07;102259.13;6096873;19;20019;-75
2023/03/05 04:30:21;;;;;;;2.45;1.20;;;;;;;2.61;89.79;102253.06;6098648;19;20595;-75
2023/03/05 04:32:28;;;;;;;1.33;1.00;;;;;;;2.55;89.54;102252.94;6100508;19;20017;-76
2023/03/05 04:34:34;;;;;;;1.50;1.23;;;;;;;2.50;89.51;102246.81;6098735;19;20249;-75
2023/03/05 04:36:41;;;;;;;1.40;1.30;;;;;;;2.44;89.64;102249.31;6096836;19;20054;-75
2023/03/05 04:38:46;;;;;;;4.70;1.15;;;;;;;2.38;89.54;102244.91;6094694;19;20733;-75
2023/03/05 04:40:51;;;;;;;2.20;1.25;;;;;;;2.37;89.72;102246.66;6098438;19;20396;-77
2023/03/05 04:42:56;;;;;;;2.05;1.30;;;;;;;2.32;89.72;102252.59;6096373;19;20031;-75
2023/03/05 04:45:01;;;;;;;2.28;1.10;;;;;;;2.23;89.65;102255.03;6098788;19;20051;-75
2023/03/05 04:47:07;;;;;;;1.10;0.98;;;;;;;2.18;89.97;102254.94;6098993;19;20010;-75
2023/03/05 04:49:12;;;;;;;1.25;1.20;;;;;;;2.13;89.96;102249.72;6097785;19;20035;-75
2023/03/05 04:51:17;;;;;;;3.38;1.38;;;;;;;2.07;89.61;102246.13;6095099;19;20243;-75
2023/03/05 04:53:24;;;;;;;1.65;1.20;;;;;;;2.03;89.97;102245.22;6094297;19;20121;-76
2023/03/05 04:55:29;;;;;;;2.80;1.15;;;;;;;2.00;90.19;102237.34;6098285;19;20019;-75
2023/03/05 04:57:34;;;;;;;1.60;1.20;;;;;;;1.96;90.36;102240.75;6098000;19;20011;-76
2023/03/05 04:59:39;;;;;;;3.35;1.55;;;;;;;1.92;90.06;102239.84;6099344;19;20011;-75
2023/03/05 05:01:44;;;;;;;3.22;1.50;;;;;;;1.89;90.02;102233.72;6103701;19;20015;-75
2023/03/05 05:03:49;;;;;;;5.13;1.30;;;;;;;1.85;90.46;102230.19;6100659;19;20651;-75
2023/03/05 05:06:00;;;;;;;2.35;1.20;;;;;;;1.83;91.13;102223.25;6103146;19;20499;-75
2023/03/05 05:08:05;;;;;;;1.23;1.10;;;;;;;1.79;90.71;102224.03;6103953;19;20511;-76
2023/03/05 05:10:14;;;;;;;2.90;1.40;;;;;;;1.81;91.03;102222.34;6102949;19;20018;-75
2023/03/05 05:12:21;;;;;;;2.28;1.10;;;;;;;1.78;90.64;102219.69;6103351;19;20010;-75
2023/03/05 05:14:26;;;;;;;1.27;1.20;;;;;;;1.82;90.86;102214.59;6103704;19;20011;-77
2023/03/05 05:16:31;;;;;;;1.98;1.40;;;;;;;1.82;90.80;102212.00;6108286;19;20018;-75
2023/03/05 05:18:37;;;;;;;1.20;1.05;;;;;;;1.78;90.66;102209.31;6105896;19;20232;-76
2023/03/05 05:20:41;;;;;;;1.50;1.30;;;;;;;1.74;91.20;102211.88;6101197;19;20017;-75
2023/03/05 05:22:47;;;;;;;3.10;1.33;;;;;;;1.71;91.24;102208.31;6100288;19;20025;-76
2023/03/05 05:24:52;;;;;;;2.13;1.25;;;;;;;1.68;91.30;102198.78;6102306;19;20036;-75
2023/03/05 05:27:00;;;;;;;2.92;1.33;;;;;;;1.62;91.24;102198.69;6103247;19;20019;-76
2023/03/05 05:29:04;;;;;;;1.90;1.20;;;;;;;1.57;91.43;102200.31;6099822;19;20037;-75
2023/03/05 05:31:10;;;;;;;1.30;1.20;;;;;;;1.57;91.70;102202.91;6099257;19;20015;-76
2023/03/05 05:33:14;;;;;;;1.90;1.50;;;;;;;1.53;91.19;102203.72;6096384;19;20678;-77
2023/03/05 05:35:19;;;;;;;4.22;1.52;;;;;;;1.49;91.45;102201.91;6095839;19;20013;-73
2023/03/05 05:37:25;;;;;;;2.20;1.40;;;;;;;1.48;91.21;102197.56;6093298;19;20019;-75
2023/03/05 05:39:30;;;;;;;1.48;1.38;;;;;;;1.47;91.65;102193.22;6096921;19;20021;-76
2023/03/05 05:41:35;;;;;;;1.40;1.30;;;;;;;1.44;91.15;102193.16;6099555;19;20047;-75
2023/03/05 05:43:46;;;;;;;3.15;1.30;;;;;;;1.42;92.01;102192.25;6096665;19;20041;-75
2023/03/05 05:45:50;;;;;;;2.10;1.85;;;;;;;1.40;91.56;102186.19;6095169;19;20024;-75
2023/03/05 05:47:58;;;;;;;5.15;1.85;;;;;;;1.40;91.87;102187.06;6099720;19;20024;-71
2023/03/05 05:50:06;;;;;;;4.20;1.55;;;;;;;1.41;91.81;102187.94;6097432;19;20023;-71
2023/03/05 05:52:12;;;;;;;4.35;1.75;;;;;;;1.46;92.80;102186.31;6099547;19;20703;-71
2023/03/05 05:54:17;;;;;;;4.40;1.90;;;;;;;1.47;92.07;102188.03;6099010;19;20038;-73
2023/03/05 05:56:22;;;;;;;5.40;1.90;;;;;;;1.53;92.81;102181.25;6102664;19;20007;-71
2023/03/05 05:58:29;;;;;;;4.25;2.00;;;;;;;1.54;92.18;102185.59;6102251;19;20029;-71
2023/03/05 06:00:36;;;;;;;5.10;2.10;;;;;;;1.54;91.88;102175.22;6100877;19;20713;-71
2023/03/05 06:02:41;;;;;;;3.30;1.90;;;;;;;1.61;92.40;102181.41;6101685;19;20015;-76
2023/03/05 06:04:46;;;;;;;4.32;2.30;;;;;;;1.63;92.38;102184.00;6102455;19;20026;-75
2023/03/05 06:06:51;;;;;;;4.22;2.05;;;;;;;1.69;92.96;102179.81;6106776;19;20022;-78
2023/03/05 06:08:56;;;;;;;5.43;2.20;;;;;;;1.68;91.91;102178.06;6104878;19;20685;-76
2023/03/05 06:11:01;;;;;;;4.35;2.10;;;;;;;1.71;92.75;102182.41;6103847;19;20018;-77
2023/03/05 06:13:06;;;;;;;8.25;2.75;;;;;;;1.70;92.12;102183.28;6105656;19;20015;-76
2023/03/05 06:15:11;;;;;;;4.82;1.75;;;;;;;1.72;92.40;102179.00;6105246;19;20561;-75
2023/03/05 06:17:19;;;;;;;4.22;1.80;;;;;;;1.73;92.33;102181.59;6102456;19;20018;-76
2023/03/05 06:19:34;;;;;;;4.20;1.85;;;;;;;1.73;92.37;102185.91;6098902;19;20018;-75
2023/03/05 06:21:40;;;;;;;3.20;1.65;;;;;;;1.75;92.78;102185.09;6101201;19;20014;-76
2023/03/05 06:23:45;;;;;;;4.47;1.95;;;;;;;1.75;92.53;102186.81;6102914;19;20014;-76
2023/03/05 06:25:50;;;;;;;7.03;2.30;;;;;;;1.77;92.63;102192.91;6102935;19;20355;-72
2023/03/05 06:27:55;;;;;;;2.70;1.60;;;;;;;2.07;92.38;102194.25;6101016;19;20549;-72
2023/03/05 06:29:59;;;;;;;6.63;1.70;;;;;;;2.23;91.85;102197.97;6101860;19;20066;-72
2023/03/05 06:32:07;;;;;;;3.65;1.63;;;;;;;2.27;91.93;102189.41;6098267;19;20086;-71
2023/03/05 06:34:15;;;;;;;3.42;1.60;;;;;;;2.26;91.77;102196.28;6102178;19;20276;-71
2023/03/05 06:36:23;;;;;;;2.22;1.48;;;;;;;2.28;92.12;102179.03;6102370;19;20675;-71
2023/03/05 06:38:27;;;;;;;4.43;1.90;;;;;;;2.26;91.97;102182.47;6106530;19;20022;-71
2023/03/05 06:40:32;;;;;;;3.22;1.50;;;;;;;2.27;92.00;102179.03;6103935;19;20622;-71
2023/03/05 06:42:37;;;;;;;5.95;2.00;;;;;;;2.26;92.04;102166.91;6107339;19;20676;-71
2023/03/05 06:44:43;;;;;;;3.08;1.80;;;;;;;2.25;92.21;102176.41;6100837;19;20018;-71
2023/03/05 06:46:50;;;;;;;3.90;2.00;;;;;;;2.27;92.75;102174.72;6109592;19;20013;-72
2023/03/05 06:48:57;;;;;;;5.10;1.90;;;;;;;2.26;93.01;102172.09;6100318;19;20017;-71
2023/03/05 06:51:05;;;;;;;1.35;1.25;;;;;;;2.25;92.81;102181.59;6101465;19;20031;-70
2023/03/05 06:53:10;;;;;;;4.22;1.80;;;;;;;2.27;93.04;102174.72;6101558;19;20141;-71
2023/03/05 06:55:15;;;;;;;2.45;1.60;;;;;;;2.25;92.61;102173.81;6102238;19;20011;-71
2023/03/05 06:57:19;;;;;;;4.95;1.60;;;;;;;2.26;92.96;102172.09;6101859;19;20106;-70
2023/03/05 06:59:24;;;;;;;2.42;1.55;;;;;;;2.27;92.50;102166.06;6099072;19;20013;-71
2023/03/05 07:01:29;;;;;;;4.07;1.80;;;;;;;2.31;92.72;102171.28;6099633;19;20018;-70
2023/03/05 07:03:34;;;;;;;3.58;1.60;;;;;;;2.32;92.38;102173.06;6100409;19;20018;-71
2023/03/05 07:05:40;;;;;;;5.20;2.05;;;;;;;2.36;92.66;102161.88;6104619;19;20014;-71
2023/03/05 07:07:47;;;;;;;1.90;1.60;;;;;;;2.40;92.46;102160.22;6101774;19;20632;-71
2023/03/05 07:09:54;;;;;;;4.75;2.17;;;;;;;2.42;92.23;102156.78;6100296;19;20014;-71
2023/03/05 07:11:58;;;;;;;2.97;1.90;;;;;;;2.47;92.37;102153.38;6100871;19;20014;-71
2023/03/05 07:14:04;;;;;;;5.43;2.17;;;;;;;2.50;92.17;102154.31;6100639;19;20018;-71
2023/03/05 07:16:10;;;;;;;3.92;1.77;;;;;;;2.55;92.45;102152.63;6100468;19;20022;-71
2023/03/05 07:18:15;;;;;;;4.55;1.85;;;;;;;2.62;93.06;102161.38;6099188;19;20661;-71
2023/03/05 07:20:20;;;;;;;5.85;2.15;;;;;;;2.68;93.05;102155.38;6099415;19;20019;-71
2023/03/05 07:22:25;;;;;;;2.85;1.80;;;;;;;2.72;92.29;102154.59;6098155;19;20118;-71
2023/03/05 07:24:32;;;;;;;4.40;2.10;;;;;;;2.78;92.87;102152.06;6100689;19;20039;-71
2023/03/05 07:26:37;;;;;;;4.82;1.77;;;;;;;2.81;91.95;102154.69;6099309;19;20022;-71
2023/03/05 07:28:41;;;;;;;1.60;1.50;;;;;;;2.83;91.73;102150.41;6101445;19;20109;-71
2023/03/05 07:30:46;;;;;;;2.08;1.50;;;;;;;2.85;91.77;102148.69;6099548;19;20047;-71
2023/03/05 07:32:51;;;;;;;2.20;1.67;;;;;;;2.84;91.56;102155.63;6099420;19;20018;-72
2023/03/05 07:34:56;;;;;;;4.82;2.17;;;;;;;2.85;91.53;102162.53;6102097;19;20439;-72
2023/03/05 07:37:01;;;;;;;2.47;1.77;;;;;;;2.90;91.87;102165.22;6098212;19;20400;-72
2023/03/05 07:39:07;;;;;;;5.45;1.83;;;;;;;2.96;90.70;102167.88;6098054;19;20029;-71
2023/03/05 07:41:18;;;;;;;4.53;1.40;;;;;;;2.93;88.96;102157.44;6099433;19;20544;-71
2023/03/05 07:43:23;;;;;;;2.88;1.73;;;;;;;2.96;87.63;102156.63;6099335;19;20013;-72
2023/03/05 07:45:28;;;;;;;3.70;1.58;;;;;;;2.94;87.95;102159.19;6078934;19;20015;-71
2023/03/05 07:47:33;;;;;;;1.60;1.40;;;;;;;2.95;87.69;102160.94;6096611;19;20076;-72
2023/03/05 07:49:40;;;;;;;4.80;1.25;;;;;;;2.99;87.50;102161.84;6101504;19;20030;-70
2023/03/05 07:51:45;;;;;;;1.38;1.13;;;;;;;3.07;88.02;102152.41;6100327;19;20017;-72
2023/03/05 07:53:52;;;;;;;2.67;1.25;;;;;;;3.07;87.28;102155.00;6099462;19;20014;-70
2023/03/05 07:55:57;;;;;;;2.72;1.30;;;;;;;3.14;88.32;102148.19;6098382;19;20502;-73
2023/03/05 07:58:04;;;;;;;3.65;1.50;;;;;;;3.24;88.13;102155.22;6098389;19;20253;-73
2023/03/05 08:00:11;;;;;;;8.35;1.77;;;;;;;3.27;88.36;102160.44;6100000;19;20014;-70
2023/03/05 08:02:18;;;;;;;3.35;1.73;;;;;;;3.37;88.21;102153.59;6097971;19;20118;-70
2023/03/05 08:04:23;;;;;;;3.53;1.63;;;;;;;3.48;88.28;102157.19;6098736;19;20321;-72
2023/03/05 08:06:28;;;;;;;3.90;1.77;;;;;;;3.54;88.60;102153.78;6098268;19;20018;-71
2023/03/05 08:08:32;;;;;;;2.50;1.58;;;;;;;3.66;88.28;102148.69;6098131;19;20031;-71
2023/03/05 08:10:38;;;;;;;1.40;1.30;;;;;;;3.78;87.71;102138.41;6097512;19;20006;-70
2023/03/05 08:12:43;;;;;;;4.70;1.60;;;;;;;3.93;88.22;102137.66;6096804;19;20014;-70
2023/03/05 08:14:50;;;;;;;4.25;1.45;;;;;;;3.96;87.38;102135.06;6095269;19;20010;-71
2023/03/05 08:16:55;;;;;;;5.13;2.03;;;;;;;4.01;86.71;102133.38;6098162;19;20011;-71
2023/03/05 08:19:01;;;;;;;3.83;1.58;;;;;;;4.19;86.55;102135.25;6098998;19;20097;-71
2023/03/05 08:21:06;;;;;;;3.47;1.63;;;;;;;4.31;85.32;102131.84;6100177;19;20010;-71
2023/03/05 08:23:13;;;;;;;2.40;1.42;;;;;;;4.37;84.98;102124.97;6100456;19;20653;-71
2023/03/05 08:25:18;;;;;;;6.15;1.70;;;;;;;4.31;84.54;102129.25;6098678;19;20022;-71
2023/03/05 08:27:22;;;;;;;3.95;1.88;;;;;;;4.37;85.04;102130.16;6096468;19;20014;-71
2023/03/05 08:29:29;;;;;;;2.95;1.58;;;;;;;4.32;84.19;102126.66;6098215;19;20015;-71
2023/03/05 08:31:37;;;;;;;5.10;1.80;;;;;;;4.39;84.84;102127.56;6099566;19;20019;-71
2023/03/05 08:33:42;;;;;;;4.75;2.22;;;;;;;4.36;84.93;102131.00;6098463;19;20759;-71
2023/03/05 08:35:47;;;;;;;2.08;1.40;;;;;;;4.38;85.89;102121.47;6097674;19;20014;-71
2023/03/05 08:37:52;;;;;;;4.80;1.90;;;;;;;4.41;85.34;102123.22;6098232;19;20039;-71
2023/03/05 08:39:57;;;;;;;2.97;1.58;;;;;;;4.40;84.51;102121.50;6098286;19;20659;-72
2023/03/05 08:42:02;;;;;;;2.25;1.60;;;;;;;4.49;84.73;102116.31;6096023;19;20021;-72
2023/03/05 08:44:07;;;;;;;2.75;1.50;;;;;;;4.54;84.96;102112.03;6097178;19;20019;-72
2023/03/05 08:46:13;;;;;;;3.90;1.40;;;;;;;4.72;85.73;102105.16;6095205;19;20019;-71
2023/03/05 08:48:20;;;;;;;4.07;1.65;;;;;;;4.89;85.73;102107.81;6097910;19;20014;-72
2023/03/05 08:50:25;;;;;;;9.13;3.00;;;;;;;4.70;83.82;102099.06;6096429;19;20015;-72
2023/03/05 08:52:30;;;;;;;5.88;2.08;;;;;;;4.73;83.40;102099.94;6096996;19;20018;-72
2023/03/05 08:54:35;;;;;;;7.40;1.98;;;;;;;4.81;83.44;102098.22;6096139;19;20041;-71
2023/03/05 08:56:40;;;;;;;2.30;1.50;;;;;;;5.03;84.22;102100.94;6095876;19;20623;-72
2023/03/05 08:58:46;;;;;;;2.85;1.52;;;;;;;5.09;83.10;102098.34;6095428;19;20011;-72
2023/03/05 09:00:52;;;;;;;3.97;1.60;;;;;;;5.21;84.67;102095.75;6095186;19;20648;-76
2023/03/05 09:02:57;;;;;;;3.47;1.50;;;;;;;5.13;82.83;102094.00;6096020;19;20617;-75
2023/03/05 09:05:04;;;;;;;4.53;1.77;;;;;;;5.04;83.15;102089.63;6098529;19;20609;-75
2023/03/05 09:07:11;;;;;;;5.63;1.65;;;;;;;5.02;83.40;102101.78;6101785;19;20017;-75
2023/03/05 09:09:19;;;;;;;6.43;1.80;;;;;;;4.72;82.53;102100.81;6100155;19;20014;-72
2023/03/05 09:11:24;;;;;;;1.90;1.17;;;;;;;4.44;79.67;102115.44;6097210;19;20019;-71
2023/03/05 09:13:29;;;;;;;2.92;1.58;;;;;;;4.24;81.13;102110.13;6099934;19;20022;-72
2023/03/05 09:15:35;;;;;;;6.93;1.67;;;;;;;4.08;82.24;102118.69;6099445;19;20554;-72
2023/03/05 09:17:41;;;;;;;3.63;1.58;;;;;;;3.91;84.10;102118.56;6098016;19;20029;-72
2023/03/05 09:19:47;;;;;;;1.65;1.40;;;;;;;3.76;84.43;102124.50;6092921;19;20006;-72
2023/03/05 09:21:55;;;;;;;3.00;1.33;;;;;;;3.71;85.20;102111.50;6094642;19;20010;-72
2023/03/05 09:24:01;;;;;;;4.53;1.38;;;;;;;3.74;85.62;102110.66;6095953;19;20094;-71
2023/03/05 09:26:07;;;;;;;2.67;1.15;;;;;;;3.70;86.88;102114.94;6098807;19;20085;-71
2023/03/05 09:28:12;;;;;;;2.63;1.70;;;;;;;3.68;87.52;102113.16;6101845;19;20687;-71
2023/03/05 09:30:20;;;;;;;2.13;1.23;;;;;;;3.81;87.45;102108.94;6102959;19;20014;-71
2023/03/05 09:32:24;;;;;;;5.13;1.83;;;;;;;3.81;86.75;102109.81;6100806;19;20082;-70
2023/03/05 09:34:31;;;;;;;4.03;1.58;;;;;;;3.82;87.64;102103.78;6103410;19;20098;-73
2023/03/05 09:36:36;;;;;;;1.48;1.10;;;;;;;3.77;88.02;102100.28;6103920;19;20676;-73
2023/03/05 09:38:44;;;;;;;2.47;1.52;;;;;;;3.85;87.93;102098.59;6102118;19;20014;-72
2023/03/05 09:40:57;;;;;;;2.45;1.30;;;;;;;3.87;86.64;102099.47;6101921;19;20011;-71
2023/03/05 09:43:07;;;;;;;1.23;1.13;;;;;;;3.83;86.57;102097.69;6101203;19;20666;-77
2023/03/05 09:45:21;;;;;;;2.03;1.02;;;;;;;4.05;86.37;102093.50;6100204;19;20510;-77
2023/03/05 09:47:44;;;;;;;6.20;1.65;;;;;;;4.26;85.69;102084.97;6097162;19;20014;-77
2023/03/05 09:49:58;;;;;;;5.18;1.63;;;;;;;4.28;85.90;102085.00;6102515;19;20010;-76
2023/03/05 09:52:10;;;;;;;4.35;1.40;;;;;;;4.29;85.37;102071.09;6104384;19;20412;-76
2023/03/05 09:54:22;;;;;;;3.03;1.10;;;;;;;4.29;85.47;102073.72;6103567;19;20029;-75